sensor_id;sensor_type;location;lat;lon;timestamp;P1;durP1;ratioP1;P2;durP2;ratioP2
11568;SDS011;5840;46.894;15.542;2023-02-11T00:01:18;27.40;;;22.73;;
11568;SDS011;5840;46.894;15.542;2023-02-11T00:03:47;25.73;;;21.77;;
11568;SDS011;5840;46.894;15.542;2023-02-11T00:06:14;25.63;;;21.50;;
11568;SDS011;5840;46.894;15.542;2023-02-11T00:08:41;25.93;;;22.97;;
11568;SDS011;5840;46.894;15.542;2023-02-11T00:11:10;27.13;;;20.73;;
11568;SDS011;5840;46.894;15.542;2023-02-11T00:13:39;26.80;;;21.67;;
11568;SDS011;5840;46.894;15.542;2023-02-11T00:16:08;27.60;;;22.43;;
11568;SDS011;5840;46.894;15.542;2023-02-11T00:18:36;25.27;;;20.57;;
11568;SDS011;5840;46.894;15.542;2023-02-11T00:21:06;23.47;;;19.93;;
11568;SDS011;5840;46.894;15.542;2023-02-11T00:23:34;23.90;;;20.27;;
11568;SDS011;5840;46.894;15.542;2023-02-11T00:26:01;26.50;;;21.20;;
11568;SDS011;5840;46.894;15.542;2023-02-11T00:28:28;24.27;;;21.27;;
11568;SDS011;5840;46.894;15.542;2023-02-11T00:30:55;26.17;;;21.80;;
11568;SDS011;5840;46.894;15.542;2023-02-11T00:33:25;27.03;;;22.73;;
11568;SDS011;5840;46.894;15.542;2023-02-11T00:35:52;25.00;;;22.30;;
11568;SDS011;5840;46.894;15.542;2023-02-11T00:38:19;29.13;;;23.57;;
11568;SDS011;5840;46.894;15.542;2023-02-11T00:40:46;25.57;;;21.50;;
11568;SDS011;5840;46.894;15.542;2023-02-11T00:43:13;26.37;;;22.07;;
11568;SDS011;5840;46.894;15.542;2023-02-11T00:45:39;25.23;;;20.63;;
11568;SDS011;5840;46.894;15.542;2023-02-11T00:48:06;25.13;;;21.23;;
11568;SDS011;5840;46.894;15.542;2023-02-11T00:50:35;30.87;;;23.83;;
11568;SDS011;5840;46.894;15.542;2023-02-11T00:53:02;26.23;;;22.43;;
11568;SDS011;5840;46.894;15.542;2023-02-11T00:55:29;25.63;;;22.90;;
11568;SDS011;5840;46.894;15.542;2023-02-11T00:57:56;24.43;;;21.70;;
11568;SDS011;5840;46.894;15.542;2023-02-11T01:00:24;25.47;;;21.77;;
11568;SDS011;5840;46.894;15.542;2023-02-11T01:02:51;27.63;;;21.80;;
11568;SDS011;5840;46.894;15.542;2023-02-11T01:05:18;26.73;;;23.77;;
11568;SDS011;5840;46.894;15.542;2023-02-11T01:07:47;29.80;;;23.83;;
11568;SDS011;5840;46.894;15.542;2023-02-11T01:10:14;28.57;;;23.90;;
11568;SDS011;5840;46.894;15.542;2023-02-11T01:12:41;28.90;;;23.10;;
11568;SDS011;5840;46.894;15.542;2023-02-11T01:15:08;28.50;;;23.33;;
11568;SDS011;5840;46.894;15.542;2023-02-11T01:17:38;26.97;;;22.63;;
11568;SDS011;5840;46.894;15.542;2023-02-11T01:20:06;29.13;;;22.43;;
11568;SDS011;5840;46.894;15.542;2023-02-11T01:22:36;29.43;;;22.83;;
11568;SDS011;5840;46.894;15.542;2023-02-11T01:25:05;29.07;;;22.90;;
11568;SDS011;5840;46.894;15.542;2023-02-11T01:27:32;29.33;;;24.23;;
11568;SDS011;5840;46.894;15.542;2023-02-11T01:30:00;27.90;;;24.63;;
11568;SDS011;5840;46.894;15.542;2023-02-11T01:32:28;27.20;;;23.33;;
11568;SDS011;5840;46.894;15.542;2023-02-11T01:34:55;26.77;;;21.67;;
11568;SDS011;5840;46.894;15.542;2023-02-11T01:37:22;24.10;;;20.53;;
11568;SDS011;5840;46.894;15.542;2023-02-11T01:39:49;23.20;;;19.83;;
11568;SDS011;5840;46.894;15.542;2023-02-11T01:42:18;24.10;;;19.90;;
11568;SDS011;5840;46.894;15.542;2023-02-11T01:44:47;22.27;;;19.67;;
11568;SDS011;5840;46.894;15.542;2023-02-11T01:47:16;21.27;;;19.00;;
11568;SDS011;5840;46.894;15.542;2023-02-11T01:49:44;25.07;;;20.70;;
11568;SDS011;5840;46.894;15.542;2023-02-11T01:52:14;24.37;;;21.60;;
11568;SDS011;5840;46.894;15.542;2023-02-11T01:54:46;25.60;;;21.40;;
11568;SDS011;5840;46.894;15.542;2023-02-11T01:57:36;22.63;;;19.67;;
11568;SDS011;5840;46.894;15.542;2023-02-11T02:00:08;19.07;;;17.07;;
11568;SDS011;5840;46.894;15.542;2023-02-11T02:02:39;19.80;;;17.57;;
11568;SDS011;5840;46.894;15.542;2023-02-11T02:05:15;17.90;;;16.00;;
11568;SDS011;5840;46.894;15.542;2023-02-11T02:07:48;18.57;;;15.90;;
11568;SDS011;5840;46.894;15.542;2023-02-11T02:10:22;19.40;;;16.33;;
11568;SDS011;5840;46.894;15.542;2023-02-11T02:12:53;17.77;;;15.27;;
11568;SDS011;5840;46.894;15.542;2023-02-11T02:15:22;18.67;;;15.57;;
11568;SDS011;5840;46.894;15.542;2023-02-11T02:36:08;16.03;;;14.40;;
11568;SDS011;5840;46.894;15.542;2023-02-11T02:38:43;16.23;;;14.53;;
11568;SDS011;5840;46.894;15.542;2023-02-11T02:41:14;17.83;;;15.43;;
11568;SDS011;5840;46.894;15.542;2023-02-11T02:43:45;22.20;;;18.20;;
11568;SDS011;5840;46.894;15.542;2023-02-11T02:46:15;27.00;;;20.70;;
11568;SDS011;5840;46.894;15.542;2023-02-11T02:48:45;25.63;;;19.80;;
11568;SDS011;5840;46.894;15.542;2023-02-11T02:51:24;22.53;;;18.10;;
11568;SDS011;5840;46.894;15.542;2023-02-11T02:54:06;21.87;;;18.07;;
11568;SDS011;5840;46.894;15.542;2023-02-11T02:57:08;21.07;;;18.27;;
11568;SDS011;5840;46.894;15.542;2023-02-11T02:59:47;20.17;;;17.83;;
11568;SDS011;5840;46.894;15.542;2023-02-11T03:02:28;22.23;;;17.87;;
11568;SDS011;5840;46.894;15.542;2023-02-11T03:05:02;21.10;;;18.17;;
11568;SDS011;5840;46.894;15.542;2023-02-11T03:07:36;20.07;;;17.53;;
11568;SDS011;5840;46.894;15.542;2023-02-11T03:10:08;20.03;;;16.70;;
11568;SDS011;5840;46.894;15.542;2023-02-11T03:12:39;21.40;;;16.57;;
11568;SDS011;5840;46.894;15.542;2023-02-11T03:15:07;19.07;;;15.80;;
11568;SDS011;5840;46.894;15.542;2023-02-11T03:17:36;18.17;;;16.20;;
11568;SDS011;5840;46.894;15.542;2023-02-11T03:20:08;18.87;;;15.80;;
11568;SDS011;5840;46.894;15.542;2023-02-11T03:22:39;19.13;;;16.10;;
11568;SDS011;5840;46.894;15.542;2023-02-11T03:25:11;22.53;;;18.43;;
11568;SDS011;5840;46.894;15.542;2023-02-11T03:27:40;18.53;;;16.13;;
11568;SDS011;5840;46.894;15.542;2023-02-11T03:30:12;18.07;;;15.50;;
11568;SDS011;5840;46.894;15.542;2023-02-11T03:32:45;18.27;;;15.10;;
11568;SDS011;5840;46.894;15.542;2023-02-11T03:35:19;18.17;;;15.53;;
11568;SDS011;5840;46.894;15.542;2023-02-11T03:37:49;18.43;;;16.43;;
11568;SDS011;5840;46.894;15.542;2023-02-11T03:40:21;18.43;;;16.03;;
11568;SDS011;5840;46.894;15.542;2023-02-11T03:42:51;20.77;;;17.00;;
11568;SDS011;5840;46.894;15.542;2023-02-11T03:45:22;17.73;;;15.70;;
11568;SDS011;5840;46.894;15.542;2023-02-11T03:47:52;17.73;;;15.83;;
11568;SDS011;5840;46.894;15.542;2023-02-11T03:50:23;18.40;;;16.40;;
11568;SDS011;5840;46.894;15.542;2023-02-11T03:52:53;18.17;;;16.07;;
11568;SDS011;5840;46.894;15.542;2023-02-11T03:55:22;17.30;;;14.90;;
11568;SDS011;5840;46.894;15.542;2023-02-11T03:57:50;17.73;;;15.60;;
11568;SDS011;5840;46.894;15.542;2023-02-11T04:00:18;18.83;;;15.83;;
11568;SDS011;5840;46.894;15.542;2023-02-11T04:02:45;20.13;;;17.37;;
11568;SDS011;5840;46.894;15.542;2023-02-11T04:05:12;20.17;;;17.00;;
11568;SDS011;5840;46.894;15.542;2023-02-11T04:07:42;18.60;;;16.70;;
11568;SDS011;5840;46.894;15.542;2023-02-11T04:10:09;18.57;;;16.67;;
11568;SDS011;5840;46.894;15.542;2023-02-11T04:12:37;18.87;;;16.87;;
11568;SDS011;5840;46.894;15.542;2023-02-11T04:15:04;17.40;;;15.53;;
11568;SDS011;5840;46.894;15.542;2023-02-11T04:17:32;17.87;;;15.77;;
11568;SDS011;5840;46.894;15.542;2023-02-11T04:19:59;20.57;;;17.40;;
11568;SDS011;5840;46.894;15.542;2023-02-11T04:22:26;18.57;;;16.47;;
11568;SDS011;5840;46.894;15.542;2023-02-11T04:24:54;17.07;;;15.30;;
11568;SDS011;5840;46.894;15.542;2023-02-11T04:27:21;16.00;;;14.20;;
11568;SDS011;5840;46.894;15.542;2023-02-11T04:29:48;18.00;;;14.77;;
11568;SDS011;5840;46.894;15.542;2023-02-11T04:32:15;16.87;;;15.00;;
11568;SDS011;5840;46.894;15.542;2023-02-11T04:34:42;15.97;;;14.17;;
11568;SDS011;5840;46.894;15.542;2023-02-11T04:37:09;17.10;;;14.47;;
11568;SDS011;5840;46.894;15.542;2023-02-11T04:39:36;15.50;;;13.87;;
11568;SDS011;5840;46.894;15.542;2023-02-11T04:42:05;15.40;;;13.10;;
11568;SDS011;5840;46.894;15.542;2023-02-11T04:44:32;15.93;;;12.67;;
11568;SDS011;5840;46.894;15.542;2023-02-11T04:46:59;14.93;;;13.00;;
11568;SDS011;5840;46.894;15.542;2023-02-11T04:49:26;15.53;;;13.23;;
11568;SDS011;5840;46.894;15.542;2023-02-11T04:51:53;17.47;;;14.27;;
11568;SDS011;5840;46.894;15.542;2023-02-11T04:54:19;15.50;;;13.73;;
11568;SDS011;5840;46.894;15.542;2023-02-11T04:56:47;15.33;;;13.37;;
11568;SDS011;5840;46.894;15.542;2023-02-11T04:59:16;14.53;;;12.47;;
11568;SDS011;5840;46.894;15.542;2023-02-11T05:01:43;15.63;;;13.93;;
11568;SDS011;5840;46.894;15.542;2023-02-11T05:04:10;15.27;;;13.67;;
11568;SDS011;5840;46.894;15.542;2023-02-11T05:06:37;14.80;;;12.80;;
11568;SDS011;5840;46.894;15.542;2023-02-11T05:09:04;15.20;;;13.60;;
11568;SDS011;5840;46.894;15.542;2023-02-11T05:11:31;15.00;;;13.10;;
11568;SDS011;5840;46.894;15.542;2023-02-11T05:13:58;14.80;;;13.30;;
11568;SDS011;5840;46.894;15.542;2023-02-11T05:16:26;14.40;;;12.40;;
11568;SDS011;5840;46.894;15.542;2023-02-11T05:18:53;15.27;;;13.00;;
11568;SDS011;5840;46.894;15.542;2023-02-11T05:21:20;13.90;;;12.50;;
11568;SDS011;5840;46.894;15.542;2023-02-11T05:23:47;14.37;;;12.73;;
11568;SDS011;5840;46.894;15.542;2023-02-11T05:26:15;15.40;;;13.80;;
11568;SDS011;5840;46.894;15.542;2023-02-11T05:28:43;16.87;;;14.30;;
11568;SDS011;5840;46.894;15.542;2023-02-11T05:31:10;15.03;;;13.50;;
11568;SDS011;5840;46.894;15.542;2023-02-11T05:33:40;16.67;;;13.70;;
11568;SDS011;5840;46.894;15.542;2023-02-11T05:36:08;15.53;;;13.80;;
11568;SDS011;5840;46.894;15.542;2023-02-11T05:38:36;15.03;;;13.23;;
11568;SDS011;5840;46.894;15.542;2023-02-11T05:41:04;15.10;;;13.50;;
11568;SDS011;5840;46.894;15.542;2023-02-11T05:43:31;13.47;;;12.07;;
11568;SDS011;5840;46.894;15.542;2023-02-11T05:46:00;14.13;;;11.70;;
11568;SDS011;5840;46.894;15.542;2023-02-11T05:48:28;13.00;;;11.70;;
11568;SDS011;5840;46.894;15.542;2023-02-11T05:50:56;14.70;;;13.00;;
11568;SDS011;5840;46.894;15.542;2023-02-11T05:53:24;14.43;;;12.17;;
11568;SDS011;5840;46.894;15.542;2023-02-11T05:55:51;13.70;;;12.30;;
11568;SDS011;5840;46.894;15.542;2023-02-11T05:58:18;15.80;;;13.30;;
11568;SDS011;5840;46.894;15.542;2023-02-11T06:00:45;18.30;;;14.80;;
11568;SDS011;5840;46.894;15.542;2023-02-11T06:03:12;15.60;;;13.60;;
11568;SDS011;5840;46.894;15.542;2023-02-11T06:05:39;14.60;;;13.17;;
11568;SDS011;5840;46.894;15.542;2023-02-11T06:08:08;16.50;;;13.83;;
11568;SDS011;5840;46.894;15.542;2023-02-11T06:10:35;13.87;;;11.93;;
11568;SDS011;5840;46.894;15.542;2023-02-11T06:13:03;13.10;;;10.27;;
11568;SDS011;5840;46.894;15.542;2023-02-11T06:15:30;14.77;;;11.63;;
11568;SDS011;5840;46.894;15.542;2023-02-11T06:17:57;11.33;;;10.20;;
11568;SDS011;5840;46.894;15.542;2023-02-11T06:20:24;10.80;;;9.50;;
11568;SDS011;5840;46.894;15.542;2023-02-11T06:22:50;12.00;;;10.37;;
11568;SDS011;5840;46.894;15.542;2023-02-11T06:25:19;13.40;;;10.30;;
11568;SDS011;5840;46.894;15.542;2023-02-11T06:27:46;11.67;;;10.47;;
11568;SDS011;5840;46.894;15.542;2023-02-11T06:30:13;12.77;;;11.50;;
11568;SDS011;5840;46.894;15.542;2023-02-11T06:32:40;12.87;;;10.57;;
11568;SDS011;5840;46.894;15.542;2023-02-11T06:35:07;11.37;;;10.17;;
11568;SDS011;5840;46.894;15.542;2023-02-11T06:37:34;16.00;;;13.30;;
11568;SDS011;5840;46.894;15.542;2023-02-11T06:40:01;12.03;;;10.70;;
11568;SDS011;5840;46.894;15.542;2023-02-11T06:42:29;11.40;;;10.23;;
11568;SDS011;5840;46.894;15.542;2023-02-11T06:44:56;11.50;;;10.40;;
11568;SDS011;5840;46.894;15.542;2023-02-11T06:47:23;11.43;;;9.90;;
11568;SDS011;5840;46.894;15.542;2023-02-11T06:49:50;12.80;;;11.50;;
11568;SDS011;5840;46.894;15.542;2023-02-11T06:52:17;13.20;;;11.43;;
11568;SDS011;5840;46.894;15.542;2023-02-11T06:54:44;12.67;;;11.33;;
11568;SDS011;5840;46.894;15.542;2023-02-11T06:57:11;12.17;;;10.87;;
11568;SDS011;5840;46.894;15.542;2023-02-11T06:59:39;11.80;;;10.40;;
11568;SDS011;5840;46.894;15.542;2023-02-11T07:02:08;11.70;;;10.50;;
11568;SDS011;5840;46.894;15.542;2023-02-11T07:04:35;12.17;;;10.93;;
11568;SDS011;5840;46.894;15.542;2023-02-11T07:07:02;11.00;;;9.90;;
11568;SDS011;5840;46.894;15.542;2023-02-11T07:09:29;11.83;;;10.27;;
11568;SDS011;5840;46.894;15.542;2023-02-11T07:11:56;11.33;;;10.23;;
11568;SDS011;5840;46.894;15.542;2023-02-11T07:14:23;11.93;;;10.73;;
11568;SDS011;5840;46.894;15.542;2023-02-11T07:16:51;13.07;;;11.77;;
11568;SDS011;5840;46.894;15.542;2023-02-11T07:19:18;17.60;;;15.70;;
11568;SDS011;5840;46.894;15.542;2023-02-11T07:21:45;17.23;;;15.53;;
11568;SDS011;5840;46.894;15.542;2023-02-11T07:24:13;16.50;;;14.80;;
11568;SDS011;5840;46.894;15.542;2023-02-11T07:26:40;12.80;;;11.50;;
11568;SDS011;5840;46.894;15.542;2023-02-11T07:29:07;12.90;;;11.60;;
11568;SDS011;5840;46.894;15.542;2023-02-11T07:31:34;15.83;;;13.80;;
11568;SDS011;5840;46.894;15.542;2023-02-11T07:34:03;14.97;;;12.13;;
11568;SDS011;5840;46.894;15.542;2023-02-11T07:36:30;19.63;;;16.57;;
11568;SDS011;5840;46.894;15.542;2023-02-11T07:38:57;13.83;;;12.03;;
11568;SDS011;5840;46.894;15.542;2023-02-11T07:41:25;11.63;;;10.43;;
11568;SDS011;5840;46.894;15.542;2023-02-11T07:43:52;12.47;;;11.17;;
11568;SDS011;5840;46.894;15.542;2023-02-11T07:46:20;11.90;;;10.60;;
11568;SDS011;5840;46.894;15.542;2023-02-11T07:48:48;12.00;;;10.73;;
11568;SDS011;5840;46.894;15.542;2023-02-11T07:51:17;12.27;;;11.00;;
11568;SDS011;5840;46.894;15.542;2023-02-11T07:53:46;16.10;;;14.40;;
11568;SDS011;5840;46.894;15.542;2023-02-11T07:56:13;16.37;;;13.60;;
11568;SDS011;5840;46.894;15.542;2023-02-11T07:58:41;16.83;;;15.03;;
11568;SDS011;5840;46.894;15.542;2023-02-11T08:01:09;14.97;;;12.60;;
11568;SDS011;5840;46.894;15.542;2023-02-11T08:03:37;17.03;;;15.23;;
11568;SDS011;5840;46.894;15.542;2023-02-11T08:06:07;13.00;;;10.83;;
11568;SDS011;5840;46.894;15.542;2023-02-11T08:08:36;12.30;;;10.30;;
11568;SDS011;5840;46.894;15.542;2023-02-11T08:11:04;12.83;;;10.73;;
11568;SDS011;5840;46.894;15.542;2023-02-11T08:13:32;13.23;;;11.83;;
11568;SDS011;5840;46.894;15.542;2023-02-11T08:16:00;20.67;;;17.00;;
11568;SDS011;5840;46.894;15.542;2023-02-11T08:18:27;19.60;;;17.60;;
11568;SDS011;5840;46.894;15.542;2023-02-11T08:20:54;13.77;;;12.37;;
11568;SDS011;5840;46.894;15.542;2023-02-11T08:23:21;16.97;;;14.17;;
11568;SDS011;5840;46.894;15.542;2023-02-11T08:25:49;14.87;;;13.37;;
11568;SDS011;5840;46.894;15.542;2023-02-11T08:28:16;15.10;;;13.60;;
11568;SDS011;5840;46.894;15.542;2023-02-11T08:30:43;12.97;;;11.43;;
11568;SDS011;5840;46.894;15.542;2023-02-11T08:33:10;17.47;;;14.70;;
11568;SDS011;5840;46.894;15.542;2023-02-11T08:35:37;14.53;;;12.90;;
11568;SDS011;5840;46.894;15.542;2023-02-11T08:38:05;14.93;;;13.30;;
11568;SDS011;5840;46.894;15.542;2023-02-11T08:40:33;13.27;;;11.87;;
11568;SDS011;5840;46.894;15.542;2023-02-11T08:43:01;14.03;;;12.53;;
11568;SDS011;5840;46.894;15.542;2023-02-11T08:45:28;13.40;;;12.20;;
11568;SDS011;5840;46.894;15.542;2023-02-11T08:47:56;14.73;;;13.23;;
11568;SDS011;5840;46.894;15.542;2023-02-11T08:50:23;15.77;;;13.27;;
11568;SDS011;5840;46.894;15.542;2023-02-11T08:52:52;12.77;;;11.43;;
11568;SDS011;5840;46.894;15.542;2023-02-11T08:55:19;12.47;;;11.23;;
11568;SDS011;5840;46.894;15.542;2023-02-11T08:57:45;12.00;;;10.80;;
11568;SDS011;5840;46.894;15.542;2023-02-11T09:00:15;12.87;;;11.57;;
11568;SDS011;5840;46.894;15.542;2023-02-11T09:02:43;12.83;;;11.00;;
11568;SDS011;5840;46.894;15.542;2023-02-11T09:05:10;12.30;;;10.97;;
11568;SDS011;5840;46.894;15.542;2023-02-11T09:07:37;10.90;;;9.80;;
11568;SDS011;5840;46.894;15.542;2023-02-11T09:10:04;12.13;;;10.83;;
11568;SDS011;5840;46.894;15.542;2023-02-11T09:12:31;11.03;;;9.93;;
11568;SDS011;5840;46.894;15.542;2023-02-11T09:14:58;9.93;;;9.00;;
11568;SDS011;5840;46.894;15.542;2023-02-11T09:17:27;10.90;;;9.80;;
11568;SDS011;5840;46.894;15.542;2023-02-11T09:19:54;10.00;;;8.93;;
11568;SDS011;5840;46.894;15.542;2023-02-11T09:22:20;10.37;;;9.27;;
11568;SDS011;5840;46.894;15.542;2023-02-11T09:24:47;9.70;;;8.73;;
11568;SDS011;5840;46.894;15.542;2023-02-11T09:27:14;11.93;;;10.73;;
11568;SDS011;5840;46.894;15.542;2023-02-11T09:29:41;11.57;;;9.50;;
11568;SDS011;5840;46.894;15.542;2023-02-11T09:32:08;11.47;;;9.67;;
11568;SDS011;5840;46.894;15.542;2023-02-11T09:34:37;9.67;;;8.77;;
11568;SDS011;5840;46.894;15.542;2023-02-11T09:37:03;9.10;;;8.20;;
11568;SDS011;5840;46.894;15.542;2023-02-11T09:39:30;9.77;;;8.77;;
11568;SDS011;5840;46.894;15.542;2023-02-11T09:44:59;11.00;;;9.90;;
11568;SDS011;5840;46.894;15.542;2023-02-11T09:47:29;10.40;;;9.40;;
11568;SDS011;5840;46.894;15.542;2023-02-11T09:50:01;11.17;;;10.07;;
11568;SDS011;5840;46.894;15.542;2023-02-11T09:52:34;11.50;;;10.40;;
11568;SDS011;5840;46.894;15.542;2023-02-11T09:55:09;11.93;;;10.77;;
11568;SDS011;5840;46.894;15.542;2023-02-11T09:57:42;10.03;;;9.03;;
11568;SDS011;5840;46.894;15.542;2023-02-11T10:00:15;10.57;;;9.57;;
11568;SDS011;5840;46.894;15.542;2023-02-11T10:02:54;10.67;;;9.57;;
11568;SDS011;5840;46.894;15.542;2023-02-11T10:05:47;9.13;;;8.27;;
11568;SDS011;5840;46.894;15.542;2023-02-11T10:08:55;10.60;;;9.60;;
11568;SDS011;5840;46.894;15.542;2023-02-11T10:11:30;12.37;;;9.77;;
11568;SDS011;5840;46.894;15.542;2023-02-11T10:14:05;10.73;;;9.73;;
11568;SDS011;5840;46.894;15.542;2023-02-11T10:16:42;13.13;;;11.10;;
11568;SDS011;5840;46.894;15.542;2023-02-11T10:19:19;13.20;;;10.90;;
11568;SDS011;5840;46.894;15.542;2023-02-11T10:22:10;11.53;;;10.43;;
11568;SDS011;5840;46.894;15.542;2023-02-11T10:24:42;10.87;;;9.87;;
11568;SDS011;5840;46.894;15.542;2023-02-11T10:27:18;11.87;;;10.67;;
11568;SDS011;5840;46.894;15.542;2023-02-11T10:29:47;11.27;;;10.17;;
11568;SDS011;5840;46.894;15.542;2023-02-11T10:32:20;12.00;;;10.87;;
11568;SDS011;5840;46.894;15.542;2023-02-11T10:34:57;11.57;;;10.47;;
11568;SDS011;5840;46.894;15.542;2023-02-11T10:37:28;11.83;;;10.63;;
11568;SDS011;5840;46.894;15.542;2023-02-11T10:39:56;11.90;;;10.80;;
11568;SDS011;5840;46.894;15.542;2023-02-11T10:42:23;11.40;;;10.03;;
11568;SDS011;5840;46.894;15.542;2023-02-11T10:44:54;11.40;;;10.20;;
11568;SDS011;5840;46.894;15.542;2023-02-11T10:47:25;10.87;;;9.87;;
11568;SDS011;5840;46.894;15.542;2023-02-11T10:49:57;11.93;;;10.60;;
11568;SDS011;5840;46.894;15.542;2023-02-11T10:52:29;12.13;;;10.97;;
11568;SDS011;5840;46.894;15.542;2023-02-11T10:55:00;14.03;;;11.60;;
11568;SDS011;5840;46.894;15.542;2023-02-11T10:57:34;12.70;;;11.40;;
11568;SDS011;5840;46.894;15.542;2023-02-11T11:00:05;12.50;;;11.13;;
11568;SDS011;5840;46.894;15.542;2023-02-11T11:02:51;12.33;;;11.13;;
11568;SDS011;5840;46.894;15.542;2023-02-11T11:05:22;12.37;;;11.17;;
11568;SDS011;5840;46.894;15.542;2023-02-11T11:07:57;14.23;;;11.57;;
11568;SDS011;5840;46.894;15.542;2023-02-11T11:10:26;12.77;;;11.47;;
11568;SDS011;5840;46.894;15.542;2023-02-11T11:12:55;12.27;;;11.07;;
11568;SDS011;5840;46.894;15.542;2023-02-11T11:15:23;13.00;;;11.77;;
11568;SDS011;5840;46.894;15.542;2023-02-11T11:20:35;12.23;;;11.03;;
11568;SDS011;5840;46.894;15.542;2023-02-11T11:23:16;12.70;;;11.40;;
11568;SDS011;5840;46.894;15.542;2023-02-11T11:25:45;13.23;;;11.90;;
11568;SDS011;5840;46.894;15.542;2023-02-11T11:28:27;13.17;;;11.97;;
11568;SDS011;5840;46.894;15.542;2023-02-11T11:30:56;12.03;;;10.93;;
11568;SDS011;5840;46.894;15.542;2023-02-11T11:33:27;11.93;;;10.83;;
11568;SDS011;5840;46.894;15.542;2023-02-11T11:35:57;14.03;;;12.63;;
11568;SDS011;5840;46.894;15.542;2023-02-11T11:38:28;13.43;;;11.87;;
11568;SDS011;5840;46.894;15.542;2023-02-11T11:41:16;13.30;;;12.03;;
11568;SDS011;5840;46.894;15.542;2023-02-11T11:43:59;12.67;;;11.47;;
11568;SDS011;5840;46.894;15.542;2023-02-11T11:46:29;11.83;;;10.63;;
11568;SDS011;5840;46.894;15.542;2023-02-11T11:51:47;12.50;;;11.20;;
11568;SDS011;5840;46.894;15.542;2023-02-11T11:54:21;12.70;;;11.40;;
11568;SDS011;5840;46.894;15.542;2023-02-11T11:56:52;12.67;;;11.33;;
11568;SDS011;5840;46.894;15.542;2023-02-11T11:59:25;12.23;;;11.00;;
11568;SDS011;5840;46.894;15.542;2023-02-11T12:01:58;11.73;;;10.63;;
11568;SDS011;5840;46.894;15.542;2023-02-11T12:04:39;12.93;;;11.40;;
11568;SDS011;5840;46.894;15.542;2023-02-11T12:07:22;11.93;;;10.83;;
11568;SDS011;5840;46.894;15.542;2023-02-11T12:10:03;11.93;;;10.90;;
11568;SDS011;5840;46.894;15.542;2023-02-11T12:12:53;11.63;;;10.43;;
11568;SDS011;5840;46.894;15.542;2023-02-11T12:15:30;12.07;;;10.80;;
11568;SDS011;5840;46.894;15.542;2023-02-11T12:18:08;11.80;;;10.33;;
11568;SDS011;5840;46.894;15.542;2023-02-11T12:20:48;12.70;;;11.40;;
11568;SDS011;5840;46.894;15.542;2023-02-11T12:23:37;10.53;;;9.53;;
11568;SDS011;5840;46.894;15.542;2023-02-11T12:26:14;11.13;;;10.13;;
11568;SDS011;5840;46.894;15.542;2023-02-11T12:28:48;10.80;;;9.80;;
11568;SDS011;5840;46.894;15.542;2023-02-11T12:31:28;10.13;;;9.13;;
11568;SDS011;5840;46.894;15.542;2023-02-11T12:34:18;10.57;;;9.60;;
11568;SDS011;5840;46.894;15.542;2023-02-11T12:37:04;11.97;;;10.43;;
11568;SDS011;5840;46.894;15.542;2023-02-11T12:39:42;12.17;;;11.03;;
11568;SDS011;5840;46.894;15.542;2023-02-11T12:42:31;12.20;;;10.90;;
11568;SDS011;5840;46.894;15.542;2023-02-11T12:45:24;12.63;;;11.40;;
11568;SDS011;5840;46.894;15.542;2023-02-11T12:48:13;13.03;;;11.73;;
11568;SDS011;5840;46.894;15.542;2023-02-11T12:50:52;11.27;;;10.27;;
11568;SDS011;5840;46.894;15.542;2023-02-11T12:53:26;11.87;;;10.67;;
11568;SDS011;5840;46.894;15.542;2023-02-11T12:56:16;11.70;;;10.70;;
11568;SDS011;5840;46.894;15.542;2023-02-11T12:58:49;11.83;;;10.73;;
11568;SDS011;5840;46.894;15.542;2023-02-11T13:01:21;11.07;;;9.97;;
11568;SDS011;5840;46.894;15.542;2023-02-11T13:03:52;11.27;;;10.27;;
11568;SDS011;5840;46.894;15.542;2023-02-11T13:06:24;11.03;;;10.03;;
11568;SDS011;5840;46.894;15.542;2023-02-11T13:09:00;10.23;;;9.30;;
11568;SDS011;5840;46.894;15.542;2023-02-11T13:11:32;9.37;;;8.57;;
11568;SDS011;5840;46.894;15.542;2023-02-11T13:14:06;8.53;;;7.73;;
11568;SDS011;5840;46.894;15.542;2023-02-11T13:16:40;10.53;;;9.17;;
11568;SDS011;5840;46.894;15.542;2023-02-11T13:19:13;9.73;;;8.93;;
11568;SDS011;5840;46.894;15.542;2023-02-11T13:21:49;9.93;;;9.03;;
11568;SDS011;5840;46.894;15.542;2023-02-11T13:24:33;11.77;;;10.67;;
11568;SDS011;5840;46.894;15.542;2023-02-11T13:27:10;10.30;;;9.37;;
11568;SDS011;5840;46.894;15.542;2023-02-11T13:30:00;9.80;;;8.90;;
11568;SDS011;5840;46.894;15.542;2023-02-11T13:35:31;9.50;;;8.57;;
11568;SDS011;5840;46.894;15.542;2023-02-11T13:37:59;10.07;;;9.07;;
11568;SDS011;5840;46.894;15.542;2023-02-11T13:40:29;9.47;;;8.57;;
11568;SDS011;5840;46.894;15.542;2023-02-11T13:43:00;9.43;;;8.53;;
11568;SDS011;5840;46.894;15.542;2023-02-11T13:45:32;9.93;;;9.00;;
11568;SDS011;5840;46.894;15.542;2023-02-11T13:48:04;10.50;;;9.50;;
11568;SDS011;5840;46.894;15.542;2023-02-11T13:50:45;10.00;;;8.97;;
11568;SDS011;5840;46.894;15.542;2023-02-11T13:53:14;11.13;;;10.10;;
11568;SDS011;5840;46.894;15.542;2023-02-11T13:55:42;10.03;;;9.13;;
11568;SDS011;5840;46.894;15.542;2023-02-11T13:58:15;10.40;;;9.40;;
11568;SDS011;5840;46.894;15.542;2023-02-11T14:00:47;10.23;;;9.20;;
11568;SDS011;5840;46.894;15.542;2023-02-11T14:03:29;10.43;;;9.50;;
11568;SDS011;5840;46.894;15.542;2023-02-11T14:06:20;10.50;;;9.60;;
11568;SDS011;5840;46.894;15.542;2023-02-11T14:15:01;12.43;;;11.23;;
11568;SDS011;5840;46.894;15.542;2023-02-11T14:17:54;12.30;;;11.10;;
11568;SDS011;5840;46.894;15.542;2023-02-11T14:20:32;12.87;;;10.87;;
11568;SDS011;5840;46.894;15.542;2023-02-11T14:23:06;12.83;;;11.53;;
11568;SDS011;5840;46.894;15.542;2023-02-11T14:25:50;12.57;;;11.37;;
11568;SDS011;5840;46.894;15.542;2023-02-11T14:28:26;11.47;;;10.47;;
11568;SDS011;5840;46.894;15.542;2023-02-11T14:30:58;11.47;;;10.37;;
11568;SDS011;5840;46.894;15.542;2023-02-11T14:36:41;11.90;;;10.80;;
11568;SDS011;5840;46.894;15.542;2023-02-11T14:39:40;12.07;;;10.30;;
11568;SDS011;5840;46.894;15.542;2023-02-11T14:42:19;12.13;;;10.90;;
11568;SDS011;5840;46.894;15.542;2023-02-11T14:44:51;12.53;;;11.43;;
11568;SDS011;5840;46.894;15.542;2023-02-11T14:47:22;12.00;;;10.77;;
11568;SDS011;5840;46.894;15.542;2023-02-11T14:49:56;12.20;;;11.10;;
11568;SDS011;5840;46.894;15.542;2023-02-11T14:52:25;13.57;;;12.17;;
11568;SDS011;5840;46.894;15.542;2023-02-11T14:54:56;13.30;;;11.90;;
11568;SDS011;5840;46.894;15.542;2023-02-11T14:57:32;12.67;;;11.53;;
11568;SDS011;5840;46.894;15.542;2023-02-11T15:00:02;12.97;;;11.77;;
11568;SDS011;5840;46.894;15.542;2023-02-11T15:02:33;13.73;;;12.43;;
11568;SDS011;5840;46.894;15.542;2023-02-11T15:05:14;13.50;;;12.20;;
11568;SDS011;5840;46.894;15.542;2023-02-11T15:07:44;13.93;;;12.40;;
11568;SDS011;5840;46.894;15.542;2023-02-11T15:10:15;15.87;;;12.23;;
11568;SDS011;5840;46.894;15.542;2023-02-11T15:12:46;13.63;;;12.40;;
11568;SDS011;5840;46.894;15.542;2023-02-11T15:15:16;13.10;;;11.90;;
11568;SDS011;5840;46.894;15.542;2023-02-11T15:17:46;14.87;;;12.97;;
11568;SDS011;5840;46.894;15.542;2023-02-11T15:20:19;14.77;;;13.23;;
11568;SDS011;5840;46.894;15.542;2023-02-11T15:22:50;14.40;;;13.00;;
11568;SDS011;5840;46.894;15.542;2023-02-11T15:25:22;14.27;;;12.97;;